Time;durP1;ratioP1;P1;durP2;ratioP2;P2;SDS_P1;SDS_P2;PMS_P1;PMS_P2;Temp;Humidity;BMP_temperature;BMP_pressure;BME280_temperature;BME280_humidity;BME280_pressure;Samples;Min_cycle;Max_cycle;Signal;HPM_P1;HPM_P2
2022/11/08 00:01:58;;;;;;;17.45;0.75;;;;;;;19.54;100.00;97489.63;7395652;19;20029;-88
2022/11/08 00:04:24;;;;;;;4.18;0.50;;;;;;;19.64;100.00;97481.88;7392705;19;20019;-88
2022/11/08 00:15:07;;;;;;;0.03;0.03;;;;;;;19.24;100.00;97450.66;7390504;19;20010;-89
2022/11/08 00:17:33;;;;;;;1.17;0.30;;;;;;;19.34;100.00;97448.59;7391213;19;20095;-89
2022/11/08 00:19:59;;;;;;;0.85;0.63;;;;;;;19.36;100.00;97459.31;7392557;19;20388;-87
2022/11/08 00:22:29;;;;;;;3.20;0.20;;;;;;;19.42;100.00;97460.50;7390598;19;20018;-85
2022/11/08 00:24:55;;;;;;;0.43;0.43;;;;;;;19.38;100.00;97454.53;7394976;19;20010;-84
2022/11/08 00:27:22;;;;;;;0.73;0.08;;;;;;;19.41;100.00;97439.25;7391261;19;20043;-84
2022/11/08 00:29:49;;;;;;;0.10;0.10;;;;;;;19.41;100.00;97455.44;7388828;19;20506;-84
2022/11/08 00:32:25;;;;;;;0.30;0.20;;;;;;;19.41;100.00;97444.91;7390277;19;20025;-84
2022/11/08 00:34:51;;;;;;;0.00;0.00;;;;;;;19.38;100.00;97446.09;7390849;19;20155;-84
2022/11/08 00:37:19;;;;;;;0.43;0.30;;;;;;;19.33;100.00;97452.75;7389168;19;20398;-84
2022/11/08 00:39:46;;;;;;;0.17;0.17;;;;;;;19.21;100.00;97442.66;7392943;19;20015;-84
2022/11/08 00:42:12;;;;;;;1.00;0.85;;;;;;;19.17;100.00;97445.91;7388248;19;20015;-85
2022/11/08 00:44:39;;;;;;;0.10;0.05;;;;;;;19.28;100.00;97447.38;7389699;19;20478;-85
2022/11/08 00:47:05;;;;;;;2.28;0.28;;;;;;;19.49;100.00;97453.97;7388066;19;20017;-85
2022/11/08 00:49:31;;;;;;;0.10;0.00;;;;;;;19.40;100.00;97468.84;7390061;19;20052;-84
2022/11/08 00:51:57;;;;;;;0.10;0.00;;;;;;;19.29;100.00;97455.28;7390066;19;20058;-85
2022/11/08 00:54:24;;;;;;;1.17;0.25;;;;;;;19.10;100.00;97469.34;7389829;19;20018;-86
2022/11/08 00:56:50;;;;;;;0.10;0.00;;;;;;;18.96;100.00;97501.41;7390975;19;20028;-86
2022/11/08 00:59:18;;;;;;;0.00;0.00;;;;;;;18.71;100.00;97543.94;7391431;19;20025;-85
2022/11/08 01:01:45;;;;;;;1.65;0.17;;;;;;;18.18;100.00;97570.75;7394066;19;20037;-83
2022/11/08 01:04:14;;;;;;;1.60;0.08;;;;;;;17.89;100.00;97540.88;7387850;19;20027;-84
2022/11/08 01:06:40;;;;;;;0.20;0.17;;;;;;;17.67;100.00;97522.22;7387808;19;20014;-84
2022/11/08 01:09:07;;;;;;;0.10;0.10;;;;;;;17.56;100.00;97529.09;7389711;19;20045;-85
2022/11/08 01:11:34;;;;;;;0.10;0.00;;;;;;;17.41;100.00;97532.03;7390552;19;20459;-84
2022/11/08 01:14:00;;;;;;;0.32;0.10;;;;;;;16.98;100.00;97522.13;7383249;19;20018;-86
2022/11/08 01:16:29;;;;;;;0.00;0.00;;;;;;;17.25;100.00;97533.50;7387678;19;20014;-84
2022/11/08 01:18:57;;;;;;;2.47;0.20;;;;;;;17.24;100.00;97541.19;7387474;19;20010;-84
2022/11/08 01:21:24;;;;;;;0.47;0.25;;;;;;;17.37;100.00;97545.75;7391065;19;20022;-84
2022/11/08 01:23:50;;;;;;;0.20;0.20;;;;;;;17.40;100.00;97550.22;7387541;19;20018;-85
2022/11/08 01:26:19;;;;;;;1.13;0.20;;;;;;;17.41;100.00;97557.34;7394424;19;20485;-84
2022/11/08 01:28:46;;;;;;;0.10;0.10;;;;;;;17.59;100.00;97550.44;7401506;19;20462;-85
2022/11/08 01:31:21;;;;;;;0.20;0.20;;;;;;;17.70;100.00;97544.31;7395674;19;20359;-85
2022/11/08 01:33:48;;;;;;;0.60;0.10;;;;;;;17.60;100.00;97551.94;7398283;19;20014;-85
2022/11/08 01:36:16;;;;;;;0.10;0.00;;;;;;;17.62;100.00;97538.03;7398850;19;20358;-84
2022/11/08 01:38:42;;;;;;;0.10;0.00;;;;;;;17.46;100.00;97561.97;7398370;19;20014;-83
2022/11/08 01:41:13;;;;;;;0.10;0.10;;;;;;;17.27;100.00;97559.75;7394783;19;20018;-84
2022/11/08 01:43:45;;;;;;;0.10;0.05;;;;;;;17.38;100.00;97564.88;7398809;19;20357;-83
2022/11/08 01:46:26;;;;;;;0.10;0.10;;;;;;;17.48;100.00;97567.78;7398108;19;20442;-84
2022/11/08 01:49:24;;;;;;;0.10;0.10;;;;;;;17.63;100.00;97566.91;7398028;19;20500;-84
2022/11/08 01:52:06;;;;;;;0.10;0.00;;;;;;;17.60;100.00;97570.88;7400179;19;20015;-84
2022/11/08 01:54:50;;;;;;;0.10;0.10;;;;;;;17.66;100.00;97560.88;7397947;19;20015;-84
2022/11/08 01:57:21;;;;;;;0.10;0.00;;;;;;;17.71;100.00;97550.69;7399537;19;20047;-84
2022/11/08 01:59:51;;;;;;;0.17;0.15;;;;;;;17.69;100.00;97547.72;7397104;19;20018;-84
2022/11/08 02:02:18;;;;;;;0.10;0.10;;;;;;;17.46;100.00;97542.28;7395943;19;20366;-84
2022/11/08 02:04:44;;;;;;;0.10;0.10;;;;;;;17.65;100.00;97542.47;7398550;19;20026;-85
2022/11/08 02:07:12;;;;;;;0.00;0.00;;;;;;;17.75;100.00;97534.88;7393791;19;20030;-85
2022/11/08 02:09:42;;;;;;;0.10;0.00;;;;;;;17.74;100.00;97539.00;7392361;19;20014;-85
2022/11/08 02:12:09;;;;;;;9.35;0.25;;;;;;;17.92;100.00;97548.19;7392737;19;20018;-85
2022/11/08 02:14:36;;;;;;;0.13;0.13;;;;;;;17.87;100.00;97541.47;7389925;19;20019;-86
2022/11/08 02:17:04;;;;;;;0.10;0.00;;;;;;;17.99;100.00;97542.47;7391212;19;20015;-87
2022/11/08 02:19:41;;;;;;;0.22;0.22;;;;;;;18.18;100.00;97536.94;7395951;19;20026;-87
2022/11/08 02:22:32;;;;;;;0.00;0.00;;;;;;;17.94;100.00;97526.56;7394517;19;20034;-87
2022/11/08 02:24:59;;;;;;;0.22;0.22;;;;;;;18.16;100.00;97519.88;7394273;19;20352;-87
2022/11/08 02:27:25;;;;;;;0.10;0.10;;;;;;;18.18;100.00;97502.41;7394414;19;20007;-87
2022/11/08 02:29:55;;;;;;;0.00;0.00;;;;;;;18.03;100.00;97508.97;7396040;19;20023;-86
2022/11/08 02:32:22;;;;;;;0.47;0.00;;;;;;;18.37;100.00;97513.00;7394511;19;20397;-86
2022/11/08 02:34:53;;;;;;;0.10;0.00;;;;;;;18.21;100.00;97506.13;7391250;19;20018;-86
2022/11/08 02:37:21;;;;;;;0.10;0.10;;;;;;;17.94;100.00;97509.66;7394279;19;20334;-86
2022/11/08 02:39:47;;;;;;;0.10;0.10;;;;;;;17.94;100.00;97497.66;7393226;19;20350;-86
2022/11/08 02:42:18;;;;;;;0.10;0.00;;;;;;;17.89;100.00;97490.94;7394888;19;20042;-86
2022/11/08 02:44:46;;;;;;;0.10;0.00;;;;;;;17.64;100.00;97495.22;7396839;19;20018;-86
2022/11/08 02:47:12;;;;;;;0.10;0.10;;;;;;;17.55;100.00;97493.06;7393007;19;20026;-85
2022/11/08 02:49:38;;;;;;;0.00;0.00;;;;;;;17.60;100.00;97492.81;7391759;19;20035;-86
2022/11/08 02:52:05;;;;;;;0.57;0.10;;;;;;;17.81;100.00;97476.22;7392264;19;20018;-85
2022/11/08 02:54:31;;;;;;;0.10;0.10;;;;;;;17.79;100.00;97481.69;7391264;19;20044;-85
2022/11/08 02:56:57;;;;;;;0.32;0.32;;;;;;;17.87;100.00;97496.41;7396213;19;20022;-85
2022/11/08 02:59:23;;;;;;;0.15;0.15;;;;;;;17.66;100.00;97498.19;7397639;19;20046;-86
2022/11/08 03:01:49;;;;;;;0.30;0.30;;;;;;;17.65;100.00;97508.69;7399000;19;20687;-85
2022/11/08 03:04:16;;;;;;;0.10;0.10;;;;;;;17.53;100.00;97513.34;7390930;19;20053;-85
2022/11/08 03:06:42;;;;;;;0.10;0.00;;;;;;;17.22;100.00;97506.50;7393729;19;20026;-86
2022/11/08 03:09:08;;;;;;;0.10;0.10;;;;;;;16.92;100.00;97512.41;7393627;19;20107;-85
2022/11/08 03:11:34;;;;;;;1.35;0.30;;;;;;;16.93;100.00;97508.31;7397040;19;20025;-86
2022/11/08 03:14:00;;;;;;;0.10;0.10;;;;;;;16.91;100.00;97516.56;7393730;19;20018;-85
2022/11/08 03:16:26;;;;;;;0.10;0.10;;;;;;;16.70;100.00;97507.75;7392293;19;20381;-85
2022/11/08 03:18:53;;;;;;;0.10;0.10;;;;;;;16.69;100.00;97504.19;7391617;19;20037;-85
2022/11/08 03:21:19;;;;;;;0.10;0.10;;;;;;;16.69;100.00;97504.19;7393170;19;20025;-85
2022/11/08 03:23:45;;;;;;;0.75;0.52;;;;;;;16.20;100.00;97502.06;7392354;19;20030;-85
2022/11/08 03:26:11;;;;;;;0.30;0.30;;;;;;;15.48;100.00;97506.91;7393670;19;20040;-85
2022/11/08 03:28:37;;;;;;;3.08;0.68;;;;;;;15.34;100.00;97522.41;7395418;19;20019;-85
2022/11/08 03:31:03;;;;;;;0.98;0.22;;;;;;;15.44;100.00;97512.16;7394411;19;20030;-85
2022/11/08 03:33:29;;;;;;;0.10;0.00;;;;;;;15.60;100.00;97514.34;7391873;19;20015;-84
2022/11/08 03:35:56;;;;;;;6.88;0.40;;;;;;;15.34;100.00;97530.84;7391229;19;20018;-85
2022/11/08 03:38:22;;;;;;;0.10;0.10;;;;;;;15.98;100.00;97525.41;7395148;19;20026;-84
2022/11/08 03:40:48;;;;;;;0.05;0.05;;;;;;;15.59;100.00;97523.34;7392205;19;20010;-85
2022/11/08 03:43:15;;;;;;;0.13;0.13;;;;;;;15.91;100.00;97540.97;7390361;19;20033;-85
2022/11/08 03:45:41;;;;;;;0.10;0.00;;;;;;;15.90;100.00;97535.91;7395452;19;20019;-85
2022/11/08 03:48:07;;;;;;;0.32;0.32;;;;;;;15.74;100.00;97534.50;7391590;19;20018;-84
2022/11/08 03:50:33;;;;;;;0.43;0.35;;;;;;;15.64;100.00;97531.53;7390266;19;20500;-83
2022/11/08 03:53:00;;;;;;;3.92;0.30;;;;;;;15.41;100.00;97536.44;7388895;19;20382;-84
2022/11/08 03:55:27;;;;;;;0.10;0.10;;;;;;;14.70;100.00;97546.03;7387926;19;20038;-84
2022/11/08 03:57:54;;;;;;;0.10;0.00;;;;;;;14.51;100.00;97537.22;7390443;19;20014;-84
2022/11/08 04:00:23;;;;;;;7.22;0.45;;;;;;;14.92;100.00;97531.25;7391900;19;20110;-84
2022/11/08 04:02:53;;;;;;;0.10;0.10;;;;;;;15.07;100.00;97528.44;7389841;19;20388;-84
2022/11/08 04:05:20;;;;;;;0.10;0.10;;;;;;;15.04;100.00;97529.59;7390449;19;20029;-84
2022/11/08 04:07:46;;;;;;;0.65;0.20;;;;;;;14.88;100.00;97522.50;7392269;19;20545;-84
2022/11/08 04:10:13;;;;;;;0.45;0.10;;;;;;;14.78;100.00;97523.63;7394279;19;20030;-84
2022/11/08 04:15:26;;;;;;;3.83;0.30;;;;;;;14.85;100.00;97518.03;7390831;19;20026;-84
2022/11/08 04:23:28;;;;;;;0.10;0.10;;;;;;;13.96;100.00;97533.34;7391643;19;20095;-83
2022/11/08 04:25:56;;;;;;;0.10;0.05;;;;;;;13.89;100.00;97534.06;7391104;19;20018;-84
2022/11/08 04:28:25;;;;;;;0.10;0.10;;;;;;;13.82;100.00;97540.41;7394001;19;20082;-84
2022/11/08 04:30:53;;;;;;;0.10;0.00;;;;;;;13.80;100.00;97531.78;7390854;19;20124;-84
2022/11/08 04:33:20;;;;;;;1.35;0.30;;;;;;;13.75;100.00;97530.69;7389956;19;20018;-84
2022/11/08 04:35:47;;;;;;;2.53;0.20;;;;;;;13.69;100.00;97532.88;7390257;19;20014;-84
2022/11/08 04:38:13;;;;;;;0.10;0.10;;;;;;;13.72;100.00;97540.16;7390522;19;20029;-84
2022/11/08 04:40:39;;;;;;;0.10;0.10;;;;;;;13.71;100.00;97546.31;7391446;19;20361;-83
2022/11/08 04:43:05;;;;;;;0.10;0.10;;;;;;;13.60;100.00;97539.75;7388815;19;20023;-81
2022/11/08 04:45:31;;;;;;;0.10;0.10;;;;;;;13.55;100.00;97545.50;7394040;19;20019;-80
2022/11/08 04:47:57;;;;;;;1.40;0.40;;;;;;;13.76;100.00;97528.63;7387808;19;20559;-81
2022/11/08 04:50:24;;;;;;;0.30;0.10;;;;;;;13.78;100.00;97528.81;7389560;19;20018;-81
2022/11/08 04:52:51;;;;;;;0.10;0.10;;;;;;;13.79;100.00;97531.06;7393046;19;20027;-81
2022/11/08 04:55:22;;;;;;;0.10;0.10;;;;;;;13.91;100.00;97531.47;7387620;19;20014;-81
2022/11/08 04:57:49;;;;;;;0.10;0.10;;;;;;;13.84;100.00;97529.41;7390531;19;20428;-80
2022/11/08 05:00:15;;;;;;;0.10;0.10;;;;;;;13.83;100.00;97525.09;7388344;19;20359;-81
2022/11/08 05:02:41;;;;;;;0.10;0.10;;;;;;;13.83;100.00;97523.06;7397242;19;20030;-81
2022/11/08 05:05:08;;;;;;;0.10;0.08;;;;;;;13.87;100.00;97531.09;7401275;19;20035;-80
2022/11/08 05:07:34;;;;;;;0.20;0.20;;;;;;;13.74;100.00;97517.22;7395676;19;20055;-81
2022/11/08 05:10:01;;;;;;;0.20;0.20;;;;;;;13.69;100.00;97522.44;7395685;19;20476;-80
2022/11/08 05:12:27;;;;;;;0.10;0.00;;;;;;;13.82;100.00;97518.03;7396931;19;20048;-80
2022/11/08 05:14:53;;;;;;;0.10;0.10;;;;;;;13.79;100.00;97519.13;7397995;19;20074;-82
2022/11/08 05:17:19;;;;;;;0.10;0.10;;;;;;;13.86;100.00;97524.00;7395826;19;20014;-83
2022/11/08 05:25:14;;;;;;;0.10;0.10;;;;;;;14.17;100.00;97526.31;7399336;19;20480;-82
2022/11/08 05:27:41;;;;;;;0.22;0.22;;;;;;;14.13;100.00;97525.19;7395139;19;20015;-82
2022/11/08 05:30:07;;;;;;;8.07;0.47;;;;;;;14.00;100.00;97522.53;7395646;19;20047;-82
2022/11/08 05:32:33;;;;;;;0.20;0.10;;;;;;;13.92;100.00;97522.53;7394706;19;20018;-82
2022/11/08 05:34:59;;;;;;;0.10;0.10;;;;;;;13.97;100.00;97530.00;7394926;19;20086;-82
2022/11/08 05:37:25;;;;;;;0.10;0.10;;;;;;;14.07;100.00;97521.81;7394806;19;20011;-82
2022/11/08 05:39:51;;;;;;;0.20;0.10;;;;;;;14.22;100.00;97521.84;7395257;19;20029;-82
2022/11/08 05:42:18;;;;;;;2.60;0.50;;;;;;;14.22;100.00;97517.03;7395021;19;20520;-82
2022/11/08 05:44:44;;;;;;;0.10;0.10;;;;;;;14.26;100.00;97511.78;7398555;19;20027;-82
2022/11/08 05:47:10;;;;;;;0.20;0.20;;;;;;;14.32;100.00;97520.03;7394848;19;20025;-82
2022/11/08 05:49:36;;;;;;;0.10;0.10;;;;;;;14.27;100.00;97518.16;7392858;19;20018;-82
2022/11/08 05:52:02;;;;;;;0.15;0.10;;;;;;;14.29;100.00;97507.16;7395247;19;20052;-82
2022/11/08 05:54:28;;;;;;;0.10;0.10;;;;;;;14.36;100.00;97504.38;7392383;19;20022;-83
2022/11/08 05:56:55;;;;;;;0.10;0.00;;;;;;;14.27;100.00;97512.53;7395746;19;20014;-82
2022/11/08 05:59:21;;;;;;;0.10;0.10;;;;;;;14.30;100.00;97505.84;7398266;19;20026;-82
2022/11/08 06:01:47;;;;;;;0.25;0.25;;;;;;;14.27;100.00;97499.28;7397179;19;20022;-81
2022/11/08 06:04:13;;;;;;;0.35;0.20;;;;;;;14.23;100.00;97501.69;7393436;19;20017;-82
2022/11/08 06:06:39;;;;;;;0.10;0.10;;;;;;;14.26;100.00;97499.84;7396219;19;20018;-82
2022/11/08 06:09:05;;;;;;;0.10;0.00;;;;;;;14.28;100.00;97497.22;7396213;19;20022;-82
2022/11/08 06:11:31;;;;;;;0.10;0.00;;;;;;;14.07;100.00;97505.03;7398229;19;20042;-82
2022/11/08 06:13:57;;;;;;;0.10;0.10;;;;;;;14.01;100.00;97507.25;7388578;19;20018;-82
2022/11/08 06:16:25;;;;;;;1.55;0.45;;;;;;;14.04;100.00;97497.75;7393636;19;20014;-82
2022/11/08 06:18:51;;;;;;;0.10;0.10;;;;;;;14.05;100.00;97491.59;7393725;19;20018;-82
2022/11/08 06:21:19;;;;;;;0.93;0.15;;;;;;;14.10;100.00;97489.91;7395245;19;20022;-82
2022/11/08 06:23:45;;;;;;;1.70;0.47;;;;;;;14.13;100.00;97478.38;7393101;19;20042;-82
2022/11/08 06:26:12;;;;;;;0.10;0.10;;;;;;;14.18;100.00;97471.09;7393198;19;20022;-83
2022/11/08 06:28:38;;;;;;;0.10;0.10;;;;;;;14.18;100.00;97471.09;7397743;19;20465;-83
2022/11/08 06:31:04;;;;;;;0.10;0.10;;;;;;;14.14;100.00;97473.53;7395455;19;20014;-83
2022/11/08 06:33:31;;;;;;;0.10;0.00;;;;;;;14.04;100.00;97481.69;7393102;19;20022;-83
2022/11/08 06:35:57;;;;;;;0.10;0.00;;;;;;;13.99;100.00;97490.28;7395147;19;20099;-83
2022/11/08 06:38:23;;;;;;;0.30;0.10;;;;;;;13.95;100.00;97487.84;7396791;19;20030;-82
2022/11/08 06:40:49;;;;;;;0.10;0.10;;;;;;;14.13;100.00;97495.16;7393888;19;20349;-83
2022/11/08 06:43:15;;;;;;;0.10;0.10;;;;;;;14.32;100.00;97497.63;7396770;19;20014;-83
2022/11/08 06:45:41;;;;;;;0.20;0.13;;;;;;;14.31;100.00;97493.34;7396263;19;20010;-83
2022/11/08 06:48:08;;;;;;;0.10;0.10;;;;;;;14.24;100.00;97488.47;7388457;19;20026;-83
2022/11/08 06:50:35;;;;;;;0.20;0.20;;;;;;;14.32;100.00;97487.19;7390800;19;20024;-83
2022/11/08 06:53:04;;;;;;;0.10;0.10;;;;;;;14.21;100.00;97493.13;7389691;19;20014;-83
2022/11/08 06:55:31;;;;;;;0.30;0.22;;;;;;;14.27;100.00;97481.75;7391173;19;20038;-82
2022/11/08 06:57:57;;;;;;;0.10;0.10;;;;;;;14.16;100.00;97487.69;7394631;19;20031;-83
2022/11/08 07:00:24;;;;;;;0.20;0.20;;;;;;;14.21;100.00;97481.16;7395738;19;20010;-83
2022/11/08 07:02:55;;;;;;;0.10;0.10;;;;;;;14.18;100.00;97487.91;7395854;19;20469;-83
2022/11/08 07:05:22;;;;;;;0.10;0.05;;;;;;;14.22;100.00;97479.88;7393620;19;20476;-83
2022/11/08 07:07:50;;;;;;;0.17;0.17;;;;;;;14.39;100.00;97491.31;7393099;19;20014;-82
2022/11/08 07:10:18;;;;;;;0.20;0.20;;;;;;;14.44;100.00;97487.56;7393091;19;20025;-82
2022/11/08 07:12:45;;;;;;;0.60;0.35;;;;;;;14.54;100.00;97493.34;7390984;19;20029;-83
2022/11/08 07:15:12;;;;;;;0.40;0.40;;;;;;;14.66;100.00;97498.03;7391635;19;20035;-83
2022/11/08 07:17:38;;;;;;;8.18;0.47;;;;;;;14.86;100.00;97494.28;7391016;19;20074;-83
2022/11/08 07:20:05;;;;;;;0.10;0.10;;;;;;;14.92;100.00;97508.13;7392970;19;20488;-83
2022/11/08 07:22:31;;;;;;;2.90;0.30;;;;;;;15.05;100.00;97500.22;7395307;19;20014;-83
2022/11/08 07:24:57;;;;;;;2.63;1.45;;;;;;;15.22;100.00;97498.91;7394159;19;20048;-83
2022/11/08 07:27:23;;;;;;;1.63;0.80;;;;;;;15.43;100.00;97496.59;7394222;19;20341;-82
2022/11/08 07:29:49;;;;;;;0.95;0.75;;;;;;;15.55;100.00;97494.91;7393451;19;20680;-82
2022/11/08 07:32:16;;;;;;;0.30;0.17;;;;;;;15.70;100.00;97495.59;7394119;19;20018;-82
2022/11/08 07:34:42;;;;;;;0.10;0.10;;;;;;;15.82;100.00;97507.13;7396813;19;20010;-83
2022/11/08 07:37:08;;;;;;;0.85;0.40;;;;;;;15.79;100.00;97497.03;7397227;19;20027;-83
2022/11/08 07:39:34;;;;;;;0.22;0.15;;;;;;;16.02;100.00;97494.88;7389938;19;20074;-82
2022/11/08 07:42:00;;;;;;;0.98;0.50;;;;;;;16.07;100.00;97493.91;7390200;19;20023;-82
2022/11/08 07:44:28;;;;;;;0.28;0.28;;;;;;;16.12;100.00;97495.00;7394141;19;20022;-82
2022/11/08 07:46:55;;;;;;;1.27;0.65;;;;;;;16.21;100.00;97495.13;7395950;19;20014;-82
2022/11/08 07:49:21;;;;;;;0.65;0.63;;;;;;;16.01;100.00;97499.00;7388493;19;20014;-82
2022/11/08 07:51:47;;;;;;;0.90;0.30;;;;;;;16.01;100.00;97487.00;7395438;19;20337;-83
2022/11/08 07:54:13;;;;;;;0.43;0.20;;;;;;;16.13;100.00;97468.44;7388100;19;20081;-82
2022/11/08 07:56:39;;;;;;;0.35;0.32;;;;;;;16.02;100.00;97469.63;7391570;19;20042;-82
2022/11/08 07:59:05;;;;;;;0.68;0.40;;;;;;;16.03;100.00;97470.34;7390957;19;20035;-83
2022/11/08 08:01:31;;;;;;;0.10;0.10;;;;;;;16.00;100.00;97472.25;7393753;19;20371;-83
2022/11/08 08:03:57;;;;;;;0.20;0.20;;;;;;;15.73;100.00;97471.25;7393845;19;20022;-82
2022/11/08 08:06:23;;;;;;;0.10;0.10;;;;;;;15.73;100.00;97474.06;7394981;19;20035;-83
2022/11/08 08:08:50;;;;;;;0.10;0.03;;;;;;;15.70;100.00;97483.63;7391944;19;20049;-83
2022/11/08 08:11:16;;;;;;;0.10;0.10;;;;;;;15.78;100.00;97489.94;7390403;19;20017;-83
2022/11/08 08:13:42;;;;;;;0.82;0.40;;;;;;;15.36;100.00;97488.94;7392148;19;20022;-83
2022/11/08 08:16:08;;;;;;;0.32;0.32;;;;;;;15.71;100.00;97485.13;7393066;19;20092;-83
2022/11/08 08:18:35;;;;;;;0.55;0.32;;;;;;;16.05;100.00;97478.97;7391616;19;20021;-83
2022/11/08 08:21:01;;;;;;;4.40;0.52;;;;;;;16.29;100.00;97472.59;7391479;19;20014;-83
2022/11/08 08:23:27;;;;;;;0.20;0.20;;;;;;;16.36;100.00;97477.44;7393016;19;20465;-83
2022/11/08 08:25:54;;;;;;;0.10;0.10;;;;;;;16.44;100.00;97481.69;7392149;19;20017;-84
2022/11/08 08:28:21;;;;;;;0.10;0.00;;;;;;;16.49;100.00;97483.53;7392116;19;20088;-83
2022/11/08 08:30:47;;;;;;;2.20;0.52;;;;;;;16.53;100.00;97478.28;7390173;19;20023;-83
2022/11/08 08:33:15;;;;;;;3.42;1.08;;;;;;;16.49;100.00;97483.53;7392417;19;20025;-84
2022/11/08 08:35:44;;;;;;;0.10;0.08;;;;;;;16.51;100.00;97480.91;7390796;19;20013;-83
2022/11/08 08:38:12;;;;;;;3.08;0.45;;;;;;;16.43;100.00;97477.41;7394276;19;20025;-83
2022/11/08 08:40:38;;;;;;;13.57;0.75;;;;;;;16.64;100.00;97472.19;7392536;19;20074;-84
2022/11/08 08:43:05;;;;;;;1.48;0.57;;;;;;;16.89;100.00;97474.22;7396380;19;20345;-84
2022/11/08 08:45:33;;;;;;;7.03;0.50;;;;;;;16.99;100.00;97463.81;7404819;19;20014;-84
2022/11/08 08:47:59;;;;;;;0.77;0.17;;;;;;;16.94;100.00;97464.78;7392007;19;20493;-84
2022/11/08 08:50:28;;;;;;;0.85;0.22;;;;;;;17.13;100.00;97473.44;7391376;19;20023;-84
2022/11/08 08:53:02;;;;;;;0.20;0.20;;;;;;;17.18;100.00;97476.00;7390647;19;20490;-84
2022/11/08 08:55:28;;;;;;;0.32;0.10;;;;;;;17.24;100.00;97470.84;7389185;19;20199;-84
2022/11/08 08:57:56;;;;;;;0.47;0.47;;;;;;;17.42;100.00;97468.78;7394785;19;20345;-84
2022/11/08 09:00:23;;;;;;;11.80;0.47;;;;;;;17.40;100.00;97472.19;7388252;19;20051;-83
2022/11/08 09:02:49;;;;;;;12.80;0.50;;;;;;;17.41;100.00;97459.59;7389134;19;20026;-83
2022/11/08 09:05:15;;;;;;;0.55;0.30;;;;;;;17.47;100.00;97469.88;7388529;19;20094;-83
2022/11/08 09:07:41;;;;;;;0.10;0.10;;;;;;;17.56;100.00;97467.16;7389203;19;20021;-81
2022/11/08 09:10:09;;;;;;;7.30;0.40;;;;;;;17.55;100.00;97464.91;7389554;19;20042;-82
2022/11/08 09:12:37;;;;;;;1.17;0.10;;;;;;;17.33;100.00;97477.88;7386333;19;20018;-82
2022/11/08 09:15:04;;;;;;;0.10;0.10;;;;;;;17.26;100.00;97456.25;7387973;19;20038;-81
2022/11/08 09:17:31;;;;;;;10.07;1.83;;;;;;;17.31;100.00;97455.97;7387770;19;20022;-83
2022/11/08 09:19:57;;;;;;;2.92;0.20;;;;;;;17.63;100.00;97459.97;7388159;19;20006;-82
2022/11/08 09:22:23;;;;;;;0.10;0.00;;;;;;;17.66;100.00;97464.41;7389024;19;20039;-82
2022/11/08 09:24:49;;;;;;;0.10;0.10;;;;;;;17.73;100.00;97464.31;7388738;19;20022;-82
2022/11/08 09:27:15;;;;;;;2.83;0.68;;;;;;;17.82;100.00;97466.44;7385317;19;20015;-81
2022/11/08 09:29:41;;;;;;;0.10;0.10;;;;;;;17.99;100.00;97463.59;7390283;19;20026;-81
2022/11/08 09:32:07;;;;;;;0.65;0.57;;;;;;;18.03;100.00;97451.91;7392261;19;20018;-82
2022/11/08 09:34:33;;;;;;;0.20;0.20;;;;;;;18.38;100.00;97458.91;7386533;19;20046;-82
2022/11/08 09:36:59;;;;;;;0.13;0.13;;;;;;;18.48;100.00;97456.88;7387988;19;20014;-81
2022/11/08 09:39:26;;;;;;;0.98;0.28;;;;;;;18.32;100.00;97452.03;7389430;19;20026;-81
2022/11/08 09:42:07;;;;;;;1.05;0.13;;;;;;;18.34;100.00;97452.22;7391829;19;20022;-81
2022/11/08 09:44:51;;;;;;;1.65;0.63;;;;;;;18.30;100.00;97458.25;7389672;19;20018;-81
2022/11/08 09:47:25;;;;;;;3.83;0.57;;;;;;;18.35;100.00;97451.59;7389240;19;20018;-81
2022/11/08 09:49:57;;;;;;;0.10;0.00;;;;;;;18.37;100.00;97451.00;7393771;19;20513;-81
2022/11/08 09:52:26;;;;;;;0.98;0.32;;;;;;;18.16;100.00;97455.09;7396170;19;20019;-81
2022/11/08 09:55:03;;;;;;;1.95;0.63;;;;;;;18.18;100.00;97448.88;7394105;19;20405;-82
2022/11/08 09:57:37;;;;;;;1.50;0.40;;;;;;;18.23;100.00;97435.84;7396324;19;20023;-82
2022/11/08 10:00:05;;;;;;;2.58;0.38;;;;;;;18.58;100.00;97449.19;7397476;19;20047;-82
2022/11/08 10:02:32;;;;;;;2.80;0.52;;;;;;;18.80;100.00;97445.25;7398681;19;20553;-82
2022/11/08 10:05:04;;;;;;;14.05;0.50;;;;;;;18.77;100.00;97440.06;7394248;19;20011;-83
2022/11/08 10:07:53;;;;;;;3.03;0.60;;;;;;;18.77;100.00;97431.59;7392396;19;20094;-83
2022/11/08 10:10:46;;;;;;;6.35;0.95;;;;;;;18.92;100.00;97432.09;7395946;19;20397;-82
2022/11/08 10:13:48;;;;;;;2.00;1.13;;;;;;;18.96;100.00;97431.63;7392557;19;20034;-82
2022/11/08 10:16:47;;;;;;;8.00;0.90;;;;;;;19.16;100.00;97427.50;7394633;19;20014;-83
2022/11/08 10:19:33;;;;;;;0.70;0.57;;;;;;;19.13;100.00;97428.69;7393566;19;20014;-82
2022/11/08 10:22:07;;;;;;;0.20;0.20;;;;;;;19.18;100.00;97438.19;7393748;19;20034;-83
2022/11/08 10:24:34;;;;;;;0.80;0.20;;;;;;;19.29;100.00;97420.66;7398002;19;20014;-83
2022/11/08 10:27:02;;;;;;;0.85;0.75;;;;;;;19.43;100.00;97416.81;7393570;19;20058;-82
2022/11/08 10:29:43;;;;;;;0.63;0.30;;;;;;;19.50;100.00;97418.75;7397421;19;20347;-83
2022/11/08 10:32:22;;;;;;;4.78;0.50;;;;;;;19.35;100.00;97416.25;7393207;19;20015;-82
2022/11/08 10:35:01;;;;;;;17.75;1.35;;;;;;;19.69;100.00;97423.63;7392290;19;20414;-82
2022/11/08 10:37:30;;;;;;;2.10;0.30;;;;;;;19.67;100.00;97423.47;7388294;19;20026;-83
2022/11/08 10:40:11;;;;;;;1.27;0.60;;;;;;;19.62;100.00;97428.09;7391224;19;20469;-83
2022/11/08 10:42:46;;;;;;;3.13;0.28;;;;;;;19.43;100.00;97419.66;7391781;19;20022;-83
2022/11/08 10:45:12;;;;;;;0.10;0.10;;;;;;;19.36;100.00;97417.00;7396524;19;20078;-83
2022/11/08 10:47:39;;;;;;;7.78;0.52;;;;;;;19.29;100.00;97401.66;7392604;19;20023;-83
2022/11/08 10:50:16;;;;;;;2.15;0.70;;;;;;;19.33;100.00;97401.94;7393561;19;20049;-82
2022/11/08 10:52:54;;;;;;;11.27;0.30;;;;;;;19.18;100.00;97405.06;7390641;19;20070;-81
2022/11/08 10:55:24;;;;;;;3.00;0.38;;;;;;;19.22;100.00;97401.78;7394303;19;20238;-81
2022/11/08 10:57:50;;;;;;;2.92;0.65;;;;;;;19.02;100.00;97392.59;7396809;19;20023;-80
2022/11/08 11:00:19;;;;;;;3.45;0.45;;;;;;;18.97;100.00;97398.53;7393097;19;20021;-81
2022/11/08 11:03:01;;;;;;;2.50;0.25;;;;;;;19.01;100.00;97391.13;7392512;19;20010;-80
2022/11/08 11:05:32;;;;;;;;;;;;;;;19.07;100.00;97388.72;7391092;19;20018;-81
2022/11/08 11:08:00;;;;;;;3.65;0.85;;;;;;;19.17;100.00;97383.81;7393385;19;19927;-81
2022/11/08 11:10:29;;;;;;;0.73;0.40;;;;;;;19.06;100.00;97378.06;7396131;19;20461;-81
2022/11/08 11:13:01;;;;;;;7.20;0.47;;;;;;;18.95;100.00;97373.72;7392048;19;20015;-80
2022/11/08 11:16:01;;;;;;;0.15;0.08;;;;;;;18.78;100.00;97387.94;7393426;19;20035;-80
2022/11/08 11:18:32;;;;;;;3.22;0.15;;;;;;;18.54;100.00;97391.75;7392076;19;20784;-81
2022/11/08 11:21:15;;;;;;;1.88;0.55;;;;;;;18.50;100.00;97388.63;7390467;19;20324;-81
2022/11/08 11:23:46;;;;;;;1.30;0.63;;;;;;;18.53;100.00;97373.38;7396650;19;20053;-82
2022/11/08 11:26:43;;;;;;;3.22;0.20;;;;;;;18.28;100.00;97370.75;7391792;19;20011;-82
2022/11/08 11:29:15;;;;;;;0.73;0.65;;;;;;;18.07;100.00;97381.78;7396527;19;20067;-82
2022/11/08 11:31:52;;;;;;;0.38;0.08;;;;;;;18.06;100.00;97397.22;7396220;19;20031;-83
2022/11/08 11:34:18;;;;;;;0.38;0.25;;;;;;;18.04;100.00;97372.44;7389354;19;20011;-81
2022/11/08 11:37:03;;;;;;;0.95;0.75;;;;;;;17.97;100.00;97359.25;7390674;19;20015;-80
2022/11/08 11:39:51;;;;;;;0.77;0.65;;;;;;;17.83;100.00;97366.56;7389689;19;20030;-79
2022/11/08 11:42:38;;;;;;;6.75;0.47;;;;;;;17.84;100.00;97370.88;7390495;19;20035;-80
2022/11/08 11:45:05;;;;;;;0.10;0.10;;;;;;;17.75;100.00;97368.75;7393517;19;20033;-82
2022/11/08 11:47:46;;;;;;;0.20;0.20;;;;;;;17.71;100.00;97360.00;7391477;19;20019;-81
2022/11/08 11:50:32;;;;;;;2.45;0.30;;;;;;;17.53;100.00;97338.88;7393886;19;20010;-84
2022/11/08 11:53:03;;;;;;;6.95;0.57;;;;;;;17.44;100.00;97339.50;7392793;19;20727;-88
2022/11/08 11:56:04;;;;;;;0.30;0.10;;;;;;;17.40;100.00;97342.75;7397199;19;20090;-84